GOOYLLBG

Guest
Details From GOOY - Dakar Leopold Sedar Senghor Intl
To LLBG - Tel Aviv Ben Gurion
Flight Number -
Tags Generated
Created
Modified
Stats Distance 3,037 nm / 5,624 km
Max Altitude 0 ft / 0 m
Waypoints 4
Social Downloads 1
Likes 0
Share VATSIM

Download

Looking for another format? Having issues loading an existing format? Contact us
Advertisement - Login to hide

Notes

Generated

Route

GOOY EPETI SIX LLBG

ID Type Via Altitude Latitude Longitude Leg Dist Tot Dist Heading (true) Name
O GOOY APT - 0 ft / 0 m 14.73171˚ -17.50427˚ - 0 nm - -
EPETI FIX - 0 ft / 0 m 16.49083˚ -13.93556˚ 231 nm 231 nm 62° / 63° -
SIX FIX - 0 ft / 0 m 31.99085˚ 34.77065˚ 2798 nm 3030 nm 61° / 83° -
O LLBG APT - 0 ft / 0 m 32.00417˚ 34.89117˚ 6 nm 3036 nm 83° / 83° -

Altitude Profile

Advertisement - Login to hide

Weather


0- 5 10 15 20 25 30 35+ Temperature / ° C

Clouds and Precipitation
Forecast for 2018-05-25 18:00 UTC. Updated 5 hours ago

Ground ~20,000 ft ~40,000 ft Winds

GOOY

Details ICAO GOOY (DKR)
Name Dakar Leopold Sedar Senghor Intl
Region Senegal
Timezone Africa/Dakar (UTC+0.0)
Stats Elevation 85 ft / 26 m (AMSL)
Location 14.739711° -17.490226°
Runways 2
Magnetic Variation 7.297° W

METAR

GOOY 252200Z 36006KT 8000 NSC 21/19 Q1012

Decode

TAF

TAF GOOY 251730Z 2518/2624 35010KT CAVOK= TAF GBYD 251730Z 2518/2624 26010KT CAVOK

Decode

Departure Runways

ID Width Length Bearing (true) Bearing (mag) Surface Threshold Offset Overrun Length
03 98 ft / 30 m 4,921 ft / 1,500 m 22.31° 29.61° Asphalt 0 ft / 0 m 98 ft / 30 m
18 148 ft / 45 m 11,511 ft / 3,509 m 172.57° 179.87° Asphalt 525 ft / 160 m 197 ft / 60 m
21 98 ft / 30 m 4,921 ft / 1,500 m 202.31° 209.61° Asphalt 0 ft / 0 m 1,590 ft / 485 m
36 148 ft / 45 m 11,511 ft / 3,509 m 352.57° 359.87° Asphalt 0 ft / 0 m 197 ft / 60 m

LLBG

Details ICAO LLBG (TLV)
Name Tel Aviv Ben Gurion
Region Israel
Timezone Asia/Jerusalem (UTC+3.0)
Stats Elevation 135 ft / 41 m (AMSL)
Location 32.011468° 34.885059°
Runways 3
Magnetic Variation 4.723° E

METAR

LLBG 252220Z VRB01KT CAVOK 23/14 Q1009 NOSIG

Decode

TAF

TAF LLBG 251102Z 2512/2612 32010KT CAVOK BECMG 2516/2518 VRB03KT BECMG 2520/2522 9000 SCT012 PROB40 2600/2605 5000 BR BKN007 BECMG 2605/2607 25005KT 9999 FEW020 BECMG 2609/2611 32012KT TX34/2512Z TN20/2603Z

Decode

Destination Runways

ID Width Length Bearing (true) Bearing (mag) Surface Threshold Offset Overrun Length
03 148 ft / 45 m 5,792 ft / 1,765 m 28.88° 24.16° Asphalt 0 ft / 0 m 216 ft / 66 m
08 148 ft / 45 m 12,017 ft / 3,663 m 79.72° 75.00° Asphalt 0 ft / 0 m 295 ft / 90 m
12 148 ft / 45 m 10,279 ft / 3,133 m 121.54° 116.82° Asphalt 0 ft / 0 m 328 ft / 100 m
21 148 ft / 45 m 5,792 ft / 1,765 m 208.88° 204.16° Asphalt 0 ft / 0 m 216 ft / 66 m
26 148 ft / 45 m 12,017 ft / 3,663 m 259.74° 255.02° Asphalt 1,969 ft / 600 m 205 ft / 62 m
30 148 ft / 45 m 10,279 ft / 3,133 m 301.56° 296.84° Asphalt 246 ft / 75 m 347 ft / 106 m

Approach Navaids

Runway Type Ident Frequency Range Bearing (true) Bearing (mag) Slope Elevation
12 Localiser BG 110.30 MHz 18 nm / 33 km 121.47° 116.74° - 130 ft / 40 m (AMSL)
12 Glidescope BG 110.30 MHz 10 nm / 19 km 121.55° 116.83° 3.00° 135 ft / 41 m (AMSL)
12 DME BG 110.30 MHz 18 nm / 33 km - - - 135 ft / 41 m (AMSL)
26 Localiser BA 108.70 MHz 18 nm / 33 km 259.72° 254.99° - 97 ft / 30 m (AMSL)
26 Glidescope BA 108.70 MHz 10 nm / 19 km 259.73° 255.00° 3.00° 100 ft / 30 m (AMSL)